Cadiz, OH (43907)

03:05 PM EDT die 27o July, anno 2016 (GMT -0400)
Steubenville Pike | | Change Station

Elev 1237 ft 40.28 °N, 80.99 °W | Updated 15 seconds ago

Mostly Cloudy
Plerumque Nubila
88.0 °F
Feels Like 89 °F
N
5.6
Ventus Variabilis Ventus from Magis Eurus quam Auster
Gusts 7.4 mph

Hodie
High -- | Low -- °F
--% Chance of Precip.
Yesterday
High -- | Low -- °F
Precip. -- in
Pressio 29.97 in
Visibilitas 10.0 milia passuum
Clouds Plerumque Nubila 5500 ft
Plerumque Nubila 7000 ft
Index Caloris 89 °F
Frigus in quo Ros apparet 64 °F
Umor 45%
Rainfall 0.00 in
Snow Depth Not available.
6:17 AM 8:42 PM
Last Quarter, 40% visible
METAR KHLG 271853Z 01004KT 10SM BKN055 BKN070 32/16 A2999 RMK AO2 SLP147 T03170156
Pressio 29.97 in
Visibilitas 10.0 milia passuum
Clouds Plerumque Nubila 5500 ft
Plerumque Nubila 7000 ft
Index Caloris 89 °F
Frigus in quo Ros apparet 64 °F
Umor 45%
Rainfall 0.00 in
Snow Depth Not available.
6:17 AM 8:42 PM
Last Quarter, 40% visible
METAR KHLG 271853Z 01004KT 10SM BKN055 BKN070 32/16 A2999 RMK AO2 SLP147 T03170156

10-Day Weather Forecast

Almanac

Astronomy

Jul. 27, 2016 Rise Set
Actual Time
Civil Twilight
Nautical Twilight
Astronomical Twilight
Moon
Length Of Visible Light
Length of Day
Tomorrow will be .
, % of the Moon is Illuminated

Today's Extremes

State Highs State Lows

Community

WunderPhotos

Upload Photos

1,927,898 photos uploaded!

WunderBlog® & News

Nearby

Air Quality

  Air Quality AQ Index Pollutant
Not available.

Snow Depth

Station Depth Elevation

Earthquake Activity

City Distance Mag. Time & Date
Minimum magnitude displayed is 2.5.

Coastal Water Temperatures

Locus Calor

Stations

Nearby Weather Stations

Station Location Temp Frigus Venti Frigus in quo Ros apparet Umor Ventus Precip. Elev Renovata Type
                   

Watches & Warnings

There are currently no watches in effect.